createdAt,value
2022-08-21T00:00:32.749Z,11.90
2022-08-21T00:03:03.647Z,9.53
2022-08-21T00:05:33.712Z,9.07
2022-08-21T00:08:01.724Z,9.60
2022-08-21T00:10:29.786Z,6.60
2022-08-21T00:12:58.134Z,9.43
2022-08-21T00:15:31.472Z,8.30
2022-08-21T00:17:59.862Z,6.23
2022-08-21T00:20:27.951Z,12.40
2022-08-21T00:22:57.548Z,7.57
2022-08-21T00:25:26.272Z,10.50
2022-08-21T00:27:54.308Z,7.90
2022-08-21T00:30:24.090Z,7.60
2022-08-21T00:32:54.473Z,8.03
2022-08-21T00:35:26.097Z,6.73
2022-08-21T00:37:53.974Z,8.00
2022-08-21T00:40:25.128Z,10.40
2022-08-21T00:42:53.599Z,9.60
2022-08-21T00:45:22.496Z,7.63
2022-08-21T00:47:50.852Z,9.17
2022-08-21T00:50:22.070Z,10.87
2022-08-21T00:52:51.706Z,7.27
2022-08-21T00:55:23.344Z,9.50
2022-08-21T00:57:56.020Z,9.00
2022-08-21T01:00:28.855Z,9.07
2022-08-21T01:02:57.569Z,8.43
2022-08-21T01:05:28.468Z,7.93
2022-08-21T01:07:58.009Z,9.53
2022-08-21T01:10:26.437Z,8.93
2022-08-21T01:12:57.124Z,9.57
2022-08-21T01:15:29.716Z,9.40
2022-08-21T01:17:57.649Z,8.70
2022-08-21T01:20:32.154Z,12.17
2022-08-21T01:23:03.259Z,7.87
2022-08-21T01:25:31.284Z,9.23
2022-08-21T01:28:03.895Z,8.60
2022-08-21T01:30:35.808Z,9.93
2022-08-21T01:33:03.862Z,10.63
2022-08-21T01:35:31.815Z,7.80
2022-08-21T01:37:59.652Z,6.83
2022-08-21T01:40:29.114Z,7.43
2022-08-21T01:42:57.118Z,8.17
2022-08-21T01:45:25.338Z,8.97
2022-08-21T01:47:53.155Z,11.13
2022-08-21T01:50:22.757Z,9.00
2022-08-21T01:52:51.303Z,13.10
2022-08-21T01:55:20.211Z,9.73
2022-08-21T01:57:49.768Z,7.17
2022-08-21T02:00:20.950Z,9.20
2022-08-21T02:02:48.832Z,10.27
2022-08-21T02:05:16.949Z,9.93
2022-08-21T02:07:47.565Z,9.80
2022-08-21T02:10:18.364Z,9.33
2022-08-21T02:12:46.702Z,8.93
2022-08-21T02:15:16.156Z,9.33
2022-08-21T02:17:46.719Z,10.47
2022-08-21T02:20:19.974Z,12.27
2022-08-21T02:22:48.139Z,10.87
2022-08-21T02:25:16.146Z,7.83
2022-08-21T02:27:48.446Z,9.10
2022-08-21T02:30:20.007Z,11.73
2022-08-21T02:32:48.303Z,9.60
2022-08-21T02:35:16.708Z,9.13
2022-08-21T02:37:46.983Z,8.23
2022-08-21T02:40:15.274Z,8.87
2022-08-21T02:42:44.649Z,12.30
2022-08-21T02:45:13.616Z,11.50
2022-08-21T02:47:49.595Z,7.83
2022-08-21T02:50:21.414Z,7.80
2022-08-21T02:52:51.942Z,10.80
2022-08-21T02:55:24.541Z,10.40
2022-08-21T02:57:52.478Z,10.43
2022-08-21T03:00:21.451Z,10.50
2022-08-21T03:02:51.284Z,9.77
2022-08-21T03:05:19.883Z,8.67
2022-08-21T03:07:49.110Z,9.77
2022-08-21T03:10:18.100Z,9.97
2022-08-21T03:12:46.073Z,13.23
2022-08-21T03:15:16.902Z,12.30
2022-08-21T03:17:45.707Z,9.77
2022-08-21T03:20:17.199Z,10.77
2022-08-21T03:22:46.902Z,8.80
2022-08-21T03:25:27.047Z,10.00
2022-08-21T03:28:10.642Z,9.53
2022-08-21T03:30:41.582Z,9.20
2022-08-21T03:33:12.351Z,8.37
2022-08-21T03:35:46.546Z,9.43
2022-08-21T03:38:15.215Z,10.70
2022-08-21T03:40:44.107Z,7.20
2022-08-21T03:43:12.470Z,9.93
2022-08-21T03:45:40.615Z,9.23
2022-08-21T03:48:10.140Z,10.37
2022-08-21T03:50:42.437Z,10.30
2022-08-21T03:53:16.796Z,10.43
2022-08-21T03:55:47.454Z,10.17
2022-08-21T03:58:17.325Z,10.17
2022-08-21T04:00:46.400Z,9.27
2022-08-21T04:03:14.567Z,8.67
2022-08-21T04:05:42.522Z,9.17
2022-08-21T04:08:11.996Z,9.07
2022-08-21T04:10:41.522Z,10.47
2022-08-21T04:13:10.309Z,9.93
2022-08-21T04:15:38.275Z,12.40
2022-08-21T04:18:06.821Z,11.10
2022-08-21T04:20:35.193Z,10.73
2022-08-21T04:23:03.348Z,10.27
2022-08-21T04:25:32.728Z,12.10
2022-08-21T04:28:00.676Z,12.70
2022-08-21T04:30:28.945Z,10.70
2022-08-21T04:32:58.885Z,8.60
2022-08-21T04:35:28.811Z,11.40
2022-08-21T04:37:57.232Z,8.17
2022-08-21T04:40:27.471Z,10.77
2022-08-21T04:43:00.941Z,10.87
2022-08-21T04:45:30.842Z,12.77
2022-08-21T04:48:00.612Z,9.70
2022-08-21T04:50:31.857Z,8.87
2022-08-21T04:53:00.446Z,10.70
2022-08-21T04:55:28.855Z,11.30
2022-08-21T04:57:59.551Z,12.80
2022-08-21T05:00:27.791Z,15.03
2022-08-21T05:03:00.161Z,10.80
2022-08-21T05:05:29.905Z,9.43
2022-08-21T05:07:58.913Z,11.13
2022-08-21T05:10:27.086Z,9.47
2022-08-21T05:12:55.333Z,9.10
2022-08-21T05:15:24.737Z,10.10
2022-08-21T05:18:00.677Z,8.93
2022-08-21T05:20:29.594Z,9.53
2022-08-21T05:22:58.687Z,12.00
2022-08-21T05:25:28.115Z,11.70
2022-08-21T05:27:58.108Z,11.63
2022-08-21T05:30:30.186Z,9.23
2022-08-21T05:33:00.107Z,10.93
2022-08-21T05:35:29.132Z,10.80
2022-08-21T05:37:57.644Z,12.50
2022-08-21T05:40:25.903Z,14.07
2022-08-21T05:42:56.450Z,10.63
2022-08-21T05:45:42.096Z,12.60
2022-08-21T05:48:15.529Z,10.70
2022-08-21T05:50:44.346Z,12.60
2022-08-21T05:53:13.325Z,11.50
2022-08-21T05:55:45.691Z,13.33
2022-08-21T05:58:15.306Z,10.90
2022-08-21T06:00:43.416Z,11.93
2022-08-21T06:03:18.548Z,10.73
2022-08-21T06:05:47.384Z,10.47
2022-08-21T06:08:17.055Z,10.83
2022-08-21T06:10:45.358Z,11.67
2022-08-21T06:13:14.323Z,12.60
2022-08-21T06:15:42.275Z,13.57
2022-08-21T06:18:10.325Z,9.90
2022-08-21T06:20:39.840Z,12.13
2022-08-21T06:23:07.903Z,12.00
2022-08-21T06:25:35.952Z,13.67
2022-08-21T06:28:05.872Z,14.03
2022-08-21T06:30:33.764Z,11.13
2022-08-21T06:33:02.514Z,14.27
2022-08-21T06:35:30.736Z,14.33
2022-08-21T06:38:00.464Z,18.30
2022-08-21T06:40:29.955Z,13.43
2022-08-21T06:42:59.232Z,12.17
2022-08-21T06:45:28.297Z,16.20
2022-08-21T06:48:00.152Z,13.10
2022-08-21T06:50:28.219Z,11.20
2022-08-21T06:53:02.776Z,11.33
2022-08-21T06:55:30.637Z,13.17
2022-08-21T06:57:58.620Z,14.63
2022-08-21T07:00:27.101Z,13.60
2022-08-21T07:02:55.091Z,12.97
2022-08-21T07:05:23.504Z,12.10
2022-08-21T07:07:51.404Z,15.73
2022-08-21T07:10:22.261Z,12.43
2022-08-21T07:12:59.533Z,13.73
2022-08-21T07:15:30.335Z,15.13
2022-08-21T07:17:59.181Z,11.97
2022-08-21T07:20:27.575Z,10.17
2022-08-21T07:22:55.897Z,12.73
2022-08-21T07:25:25.316Z,11.53
2022-08-21T07:27:53.023Z,12.67
2022-08-21T07:30:21.060Z,14.00
2022-08-21T07:32:50.265Z,12.47
2022-08-21T07:35:18.692Z,10.90
2022-08-21T07:37:48.301Z,8.37
2022-08-21T07:40:18.163Z,14.63
2022-08-21T07:42:52.518Z,11.90
2022-08-21T07:45:22.263Z,12.37
2022-08-21T07:47:55.316Z,10.07
2022-08-21T07:50:25.583Z,11.63
2022-08-21T07:52:54.124Z,12.63
2022-08-21T07:55:23.591Z,10.10
2022-08-21T07:57:52.991Z,13.67
2022-08-21T08:00:25.352Z,12.73
2022-08-21T08:02:55.109Z,12.50
2022-08-21T08:05:25.960Z,21.47
2022-08-21T08:07:54.283Z,10.80
2022-08-21T08:10:23.028Z,8.80
2022-08-21T08:12:55.353Z,9.20
2022-08-21T08:15:27.372Z,10.93
2022-08-21T08:17:56.732Z,9.40
2022-08-21T08:20:29.147Z,10.70
2022-08-21T08:22:57.573Z,10.10
2022-08-21T08:25:26.967Z,11.47
2022-08-21T08:27:56.217Z,8.93
2022-08-21T08:30:24.890Z,11.23
2022-08-21T08:32:52.822Z,8.70
2022-08-21T08:35:22.382Z,10.00
2022-08-21T08:37:56.065Z,13.23
2022-08-21T08:40:34.141Z,10.90
2022-08-21T08:43:03.655Z,11.63
2022-08-21T08:45:35.503Z,10.83
2022-08-21T08:48:06.849Z,10.30
2022-08-21T08:50:51.407Z,13.07
2022-08-21T08:53:25.928Z,12.17
2022-08-21T08:55:54.744Z,10.10
2022-08-21T08:58:29.172Z,12.87
2022-08-21T09:00:57.265Z,11.33
2022-08-21T09:03:26.822Z,11.53
2022-08-21T09:06:01.690Z,11.00
2022-08-21T09:08:45.048Z,9.27
2022-08-21T09:11:22.619Z,13.00
2022-08-21T09:13:58.263Z,8.87
2022-08-21T09:16:34.505Z,11.37
2022-08-21T09:19:10.257Z,8.80
2022-08-21T09:21:45.187Z,8.97
2022-08-21T09:24:27.779Z,9.50
2022-08-21T09:27:02.954Z,10.77
2022-08-21T09:29:36.764Z,9.20
2022-08-21T09:32:13.388Z,7.77
2022-08-21T09:34:43.238Z,8.10
2022-08-21T09:37:19.847Z,10.25
2022-08-21T09:39:48.913Z,9.63
2022-08-21T09:42:24.790Z,9.35
2022-08-21T09:45:09.756Z,7.83
2022-08-21T09:47:38.020Z,6.63
2022-08-21T09:50:11.555Z,9.47
2022-08-21T09:52:45.978Z,9.47
2022-08-21T09:55:34.590Z,7.63
2022-08-21T09:58:03.665Z,8.57
2022-08-21T10:00:35.102Z,7.47
2022-08-21T10:03:21.054Z,8.73
2022-08-21T10:05:55.714Z,8.55
2022-08-21T10:08:25.945Z,7.35
2022-08-21T10:10:59.051Z,5.97
2022-08-21T10:13:37.556Z,7.47
2022-08-21T10:16:20.668Z,7.93
2022-08-21T10:18:58.597Z,6.40
2022-08-21T10:21:32.820Z,8.40
2022-08-21T10:24:09.458Z,7.00
2022-08-21T10:26:49.750Z,6.43
2022-08-21T10:29:37.255Z,6.88
2022-08-21T10:32:25.895Z,7.13
2022-08-21T10:35:08.116Z,7.53
2022-08-21T10:37:50.575Z,8.23
2022-08-21T10:40:26.638Z,7.40
2022-08-21T10:43:05.792Z,6.90
2022-08-21T10:45:55.910Z,9.07
2022-08-21T10:48:31.040Z,6.78
2022-08-21T10:51:08.426Z,5.85
2022-08-21T10:53:49.141Z,6.47
2022-08-21T10:56:21.383Z,5.30
2022-08-21T10:59:03.157Z,6.68
2022-08-21T11:01:37.354Z,6.45
2022-08-21T11:04:14.398Z,6.13
2022-08-21T11:06:48.828Z,7.20
2022-08-21T11:09:22.002Z,7.10
2022-08-21T11:11:59.554Z,8.63
2022-08-21T11:14:50.443Z,8.68
2022-08-21T11:17:24.364Z,6.07
2022-08-21T11:20:01.285Z,8.35
2022-08-21T11:22:38.997Z,7.88
2022-08-21T11:25:16.096Z,10.02
2022-08-21T11:27:51.029Z,8.88
2022-08-21T11:30:19.119Z,8.88
2022-08-21T11:33:06.684Z,7.47
2022-08-21T11:35:41.527Z,5.95
2022-08-21T11:38:31.182Z,5.47
2022-08-21T11:41:19.235Z,9.02
2022-08-21T11:43:49.854Z,5.32
2022-08-21T11:46:27.887Z,5.32
2022-08-21T11:49:08.666Z,6.25
2022-08-21T11:51:43.189Z,6.90
2022-08-21T11:54:22.609Z,9.18
2022-08-21T11:56:55.555Z,8.57
2022-08-21T11:59:32.237Z,5.30
2022-08-21T12:02:00.607Z,5.57
2022-08-21T12:04:32.956Z,5.78
2022-08-21T12:07:13.269Z,9.10
2022-08-21T12:09:41.439Z,8.50
2022-08-21T12:12:15.567Z,7.05
2022-08-21T12:14:50.349Z,9.30
2022-08-21T12:17:22.195Z,6.43
2022-08-21T12:19:59.940Z,5.78
2022-08-21T12:22:41.942Z,6.97
2022-08-21T12:25:13.353Z,6.55
2022-08-21T12:27:49.236Z,4.78
2022-08-21T12:30:35.193Z,7.03
2022-08-21T12:33:06.160Z,6.60
2022-08-21T12:35:40.542Z,6.75
2022-08-21T12:38:17.798Z,6.47
2022-08-21T12:40:50.842Z,6.15
2022-08-21T12:43:24.661Z,5.30
2022-08-21T12:45:53.434Z,5.40
2022-08-21T12:48:26.037Z,5.82
2022-08-21T12:50:57.910Z,5.78
2022-08-21T12:53:34.061Z,5.60
2022-08-21T12:56:04.736Z,4.03
2022-08-21T12:58:33.615Z,5.07
2022-08-21T13:01:05.650Z,4.93
2022-08-21T13:03:37.241Z,9.82
2022-08-21T13:06:06.410Z,6.93
2022-08-21T13:08:41.684Z,6.22
2022-08-21T13:11:15.300Z,6.53
2022-08-21T13:13:50.191Z,7.05
2022-08-21T13:16:22.905Z,6.70
2022-08-21T13:18:58.741Z,5.55
2022-08-21T13:21:31.795Z,4.68
2022-08-21T13:24:40.812Z,4.57
2022-08-21T13:27:05.839Z,5.10
2022-08-21T13:29:35.868Z,7.05
2022-08-21T13:32:08.893Z,4.90
2022-08-21T13:34:39.782Z,5.30
2022-08-21T13:37:10.104Z,7.75
2022-08-21T13:39:40.570Z,5.95
2022-08-21T13:42:15.227Z,7.20
2022-08-21T13:44:46.446Z,5.88
2022-08-21T13:47:15.942Z,4.85
2022-08-21T13:49:47.341Z,8.02
2022-08-21T13:52:18.415Z,6.78
2022-08-21T13:54:55.349Z,5.85
2022-08-21T13:57:28.812Z,6.72
2022-08-21T14:00:13.683Z,8.02
2022-08-21T14:02:43.990Z,9.10
2022-08-21T14:05:21.550Z,5.85
2022-08-21T14:07:52.403Z,6.57
2022-08-21T14:10:24.559Z,4.82
2022-08-21T14:12:56.428Z,4.57
2022-08-21T14:15:27.371Z,5.00
2022-08-21T14:17:55.190Z,6.13
2022-08-21T14:20:32.998Z,3.97
2022-08-21T14:23:01.391Z,3.67
2022-08-21T14:25:38.282Z,6.07
2022-08-21T14:28:22.047Z,5.25
2022-08-21T14:30:56.994Z,6.53
2022-08-21T14:33:31.385Z,4.40
2022-08-21T14:36:00.295Z,5.78
2022-08-21T14:38:29.866Z,7.18
2022-08-21T14:41:10.699Z,4.40
2022-08-21T14:43:38.698Z,5.07
2022-08-21T14:46:06.915Z,5.32
2022-08-21T14:48:34.779Z,7.53
2022-08-21T14:51:02.723Z,4.57
2022-08-21T14:53:30.628Z,5.45
2022-08-21T14:56:08.599Z,4.88
2022-08-21T14:58:39.239Z,6.15
2022-08-21T15:01:09.625Z,4.22
2022-08-21T15:03:38.760Z,7.03
2022-08-21T15:06:08.693Z,7.00
2022-08-21T15:08:36.728Z,4.53
2022-08-21T15:11:12.006Z,3.60
2022-08-21T15:13:42.041Z,5.60
2022-08-21T15:16:11.199Z,4.25
2022-08-21T15:18:39.260Z,5.05
2022-08-21T15:21:07.538Z,7.57
2022-08-21T15:23:35.863Z,3.28
2022-08-21T15:26:09.981Z,4.50
2022-08-21T15:28:39.037Z,5.45
2022-08-21T15:31:07.449Z,4.20
2022-08-21T15:33:35.652Z,5.70
2022-08-21T15:36:04.125Z,4.13
2022-08-21T15:38:32.167Z,5.05
2022-08-21T15:41:00.195Z,4.47
2022-08-21T15:43:31.897Z,2.67
2022-08-21T15:46:00.715Z,6.10
2022-08-21T15:48:28.968Z,5.75
2022-08-21T15:50:57.410Z,7.13
2022-08-21T15:53:25.464Z,10.88
2022-08-21T15:55:53.407Z,3.42
2022-08-21T15:58:21.962Z,3.97
2022-08-21T16:00:51.370Z,3.00
2022-08-21T16:03:22.596Z,3.28
2022-08-21T16:05:53.281Z,4.70
2022-08-21T16:08:21.909Z,4.63
2022-08-21T16:10:50.174Z,5.82
2022-08-21T16:13:23.366Z,5.15
2022-08-21T16:15:53.061Z,4.22
2022-08-21T16:18:23.107Z,4.32
2022-08-21T16:20:51.536Z,6.45
2022-08-21T16:23:19.539Z,6.03
2022-08-21T16:25:48.270Z,6.97
2022-08-21T16:28:20.894Z,7.00
2022-08-21T16:30:52.294Z,4.15
2022-08-21T16:33:25.053Z,4.57
2022-08-21T16:35:53.248Z,3.30
2022-08-21T16:38:21.256Z,4.53
2022-08-21T16:40:49.522Z,3.97
2022-08-21T16:43:18.265Z,3.55
2022-08-21T16:45:46.379Z,4.70
2022-08-21T16:48:15.654Z,5.80
2022-08-21T16:50:46.856Z,5.38
2022-08-21T16:53:17.792Z,4.75
2022-08-21T16:55:45.866Z,5.63
2022-08-21T16:58:20.503Z,4.78
2022-08-21T17:00:49.528Z,4.55
2022-08-21T17:03:22.281Z,2.63
2022-08-21T17:05:50.166Z,7.63
2022-08-21T17:08:18.330Z,2.50
2022-08-21T17:10:49.385Z,8.82
2022-08-21T17:13:17.555Z,6.57
2022-08-21T17:15:46.043Z,5.53
2022-08-21T17:18:16.519Z,3.22
2022-08-21T17:20:47.685Z,3.92
2022-08-21T17:23:15.894Z,4.68
2022-08-21T17:25:47.053Z,8.23
2022-08-21T17:28:17.652Z,4.20
2022-08-21T17:30:46.185Z,5.93
2022-08-21T17:33:16.407Z,5.63
2022-08-21T17:35:46.206Z,7.13
2022-08-21T17:38:14.736Z,9.05
2022-08-21T17:40:43.790Z,3.95
2022-08-21T17:43:13.627Z,6.20
2022-08-21T17:45:42.023Z,6.50
2022-08-21T17:48:10.575Z,6.05
2022-08-21T17:50:39.097Z,9.10
2022-08-21T17:53:08.370Z,8.02
2022-08-21T17:55:37.280Z,9.48
2022-08-21T17:58:05.762Z,8.18
2022-08-21T18:00:38.499Z,7.18
2022-08-21T18:03:12.858Z,8.68
2022-08-21T18:05:42.211Z,8.33
2022-08-21T18:08:11.466Z,14.27
2022-08-21T18:10:41.992Z,5.93
2022-08-21T18:13:13.343Z,4.53
2022-08-21T18:15:52.406Z,6.03
2022-08-21T18:18:21.504Z,6.17
2022-08-21T18:20:49.604Z,5.90
2022-08-21T18:23:18.915Z,6.17
2022-08-21T18:25:51.126Z,10.07
2022-08-21T18:28:20.756Z,11.67
2022-08-21T18:30:48.652Z,14.73
2022-08-21T18:33:16.676Z,15.83
2022-08-21T18:35:44.740Z,11.70
2022-08-21T18:38:13.563Z,10.00
2022-08-21T18:40:51.440Z,14.30
2022-08-21T18:43:23.818Z,12.50
2022-08-21T18:45:52.082Z,11.87
2022-08-21T18:48:20.293Z,15.13
2022-08-21T18:50:48.492Z,14.60
2022-08-21T18:53:24.023Z,8.07
2022-08-21T18:56:04.718Z,9.83
2022-08-21T18:58:33.578Z,11.17
2022-08-21T19:01:01.576Z,13.27
2022-08-21T19:03:29.564Z,12.60
2022-08-21T19:05:59.990Z,11.93
2022-08-21T19:08:28.711Z,11.80
2022-08-21T19:11:01.516Z,10.60
2022-08-21T19:13:30.833Z,10.53
2022-08-21T19:16:02.820Z,10.00
2022-08-21T19:18:32.982Z,8.03
2022-08-21T19:21:01.147Z,14.57
2022-08-21T19:23:30.142Z,7.57
2022-08-21T19:26:02.691Z,8.47
2022-08-21T19:28:33.445Z,11.57
2022-08-21T19:31:07.581Z,12.53
2022-08-21T19:33:40.947Z,10.10
2022-08-21T19:36:12.977Z,9.27
2022-08-21T19:38:41.621Z,10.43
2022-08-21T19:41:14.974Z,10.87
2022-08-21T19:43:46.247Z,11.23
2022-08-21T19:46:19.567Z,9.07
2022-08-21T19:48:48.564Z,6.53
2022-08-21T19:51:16.641Z,7.80
2022-08-21T19:53:44.608Z,5.73
2022-08-21T19:56:22.037Z,6.97
2022-08-21T19:58:50.800Z,7.20
2022-08-21T20:01:20.801Z,6.63
2022-08-21T20:06:38.837Z,8.80
2022-08-21T20:09:08.976Z,5.30
2022-08-21T20:11:42.012Z,5.93
2022-08-21T20:14:12.198Z,5.73
2022-08-21T20:16:41.474Z,7.87
2022-08-21T20:19:10.022Z,6.23
2022-08-21T20:21:43.310Z,3.37
2022-08-21T20:24:14.841Z,4.70
2022-08-21T20:26:48.801Z,5.57
2022-08-21T20:29:24.591Z,4.80
2022-08-21T20:32:00.541Z,6.63
2022-08-21T20:34:28.376Z,5.67
2022-08-21T20:36:56.758Z,6.27
2022-08-21T20:39:25.179Z,4.00
2022-08-21T20:41:55.881Z,8.70
2022-08-21T20:44:29.376Z,5.53
2022-08-21T20:46:59.487Z,7.00
2022-08-21T20:49:33.191Z,3.53
2022-08-21T20:52:02.300Z,4.13
2022-08-21T20:54:35.264Z,4.03
2022-08-21T20:57:13.592Z,5.33
2022-08-21T20:59:53.360Z,3.13
2022-08-21T21:02:35.184Z,3.63
2022-08-21T21:05:07.319Z,3.43
2022-08-21T21:07:42.870Z,6.03
2022-08-21T21:10:22.504Z,5.53
2022-08-21T21:12:58.962Z,3.83
2022-08-21T21:15:31.424Z,4.23
2022-08-21T21:18:06.240Z,3.33
2022-08-21T21:20:38.050Z,7.10
2022-08-21T21:23:15.725Z,5.00
2022-08-21T21:25:54.833Z,4.27
2022-08-21T21:28:35.072Z,2.83
2022-08-21T21:31:03.870Z,3.50
2022-08-21T21:33:33.208Z,4.80
2022-08-21T21:36:10.532Z,1.83
2022-08-21T21:38:51.506Z,4.63
2022-08-21T21:41:30.825Z,11.10
2022-08-21T21:44:14.671Z,3.73
2022-08-21T21:46:49.673Z,2.90
2022-08-21T21:49:42.278Z,3.93
2022-08-21T21:52:31.294Z,6.80
2022-08-21T21:55:18.211Z,4.20
2022-08-21T21:58:25.659Z,2.33
2022-08-21T22:01:03.900Z,3.60
2022-08-21T22:03:39.168Z,6.27
2022-08-21T22:06:13.330Z,3.00
2022-08-21T22:08:55.026Z,3.03
2022-08-21T22:11:32.332Z,3.40
2022-08-21T22:14:08.598Z,2.20
2022-08-21T22:16:39.146Z,3.40
2022-08-21T22:19:15.799Z,4.33
2022-08-21T22:21:50.465Z,3.27
2022-08-21T22:24:24.327Z,4.83
2022-08-21T22:27:01.847Z,4.50
2022-08-21T22:29:45.428Z,6.23
2022-08-21T22:32:23.785Z,3.50
2022-08-21T22:35:15.450Z,4.23
2022-08-21T22:37:47.684Z,3.97
2022-08-21T22:40:26.238Z,5.23
2022-08-21T22:43:03.447Z,2.73
2022-08-21T22:49:01.451Z,2.97
2022-08-21T22:51:34.029Z,4.40
2022-08-21T22:54:03.425Z,3.47
2022-08-21T22:56:41.714Z,3.37
2022-08-21T22:59:26.017Z,3.70
2022-08-21T23:01:58.158Z,2.50
2022-08-21T23:04:27.790Z,2.47
2022-08-21T23:06:58.246Z,4.20
2022-08-21T23:09:34.654Z,3.37
2022-08-21T23:12:21.134Z,6.17
2022-08-21T23:14:54.590Z,3.93
2022-08-21T23:17:33.841Z,3.60
2022-08-21T23:20:12.105Z,2.40
2022-08-21T23:22:50.001Z,5.20
2022-08-21T23:25:44.079Z,3.27
2022-08-21T23:28:24.229Z,4.07
2022-08-21T23:31:05.277Z,1.80
2022-08-21T23:33:47.432Z,4.57
2022-08-21T23:36:47.891Z,4.20
2022-08-21T23:39:32.675Z,5.93
2022-08-21T23:42:06.817Z,5.00
2022-08-21T23:44:47.747Z,3.00
2022-08-21T23:47:33.893Z,3.83
2022-08-21T23:50:14.103Z,2.47
2022-08-21T23:52:55.027Z,4.40
2022-08-21T23:55:41.185Z,5.23
2022-08-21T23:58:23.539Z,2.80
